createdAt,value
2022-08-07T00:00:08.149Z,2.22
2022-08-07T00:05:08.695Z,2.40
2022-08-07T00:10:26.325Z,2.42
2022-08-07T00:15:08.082Z,2.55
2022-08-07T00:20:08.334Z,3.47
2022-08-07T00:25:16.393Z,3.15
2022-08-07T00:30:26.677Z,3.35
2022-08-07T00:35:08.112Z,3.38
2022-08-07T00:40:10.790Z,3.20
2022-08-07T00:45:08.611Z,3.28
2022-08-07T00:50:21.414Z,4.35
2022-08-07T00:55:10.662Z,3.58
2022-08-07T01:00:08.701Z,3.55
2022-08-07T01:05:18.750Z,3.30
2022-08-07T01:10:11.051Z,3.40
2022-08-07T01:15:11.757Z,3.47
2022-08-07T01:20:07.900Z,3.88
2022-08-07T01:25:39.921Z,4.05
2022-08-07T01:30:08.605Z,4.53
2022-08-07T01:35:08.501Z,3.33
2022-08-07T01:40:07.812Z,4.40
2022-08-07T01:45:15.736Z,3.25
2022-08-07T01:50:08.079Z,4.18
2022-08-07T01:55:07.747Z,3.70
2022-08-07T02:00:13.307Z,3.50
2022-08-07T02:05:08.342Z,6.38
2022-08-07T02:10:07.910Z,5.22
2022-08-07T02:15:08.171Z,3.97
2022-08-07T02:20:09.961Z,4.93
2022-08-07T02:25:17.488Z,4.40
2022-08-07T02:30:08.672Z,8.27
2022-08-07T02:35:09.222Z,4.97
2022-08-07T02:40:29.630Z,4.22
2022-08-07T02:45:58.417Z,6.43
2022-08-07T02:50:07.744Z,5.63
2022-08-07T02:55:27.736Z,5.05
2022-08-07T03:00:10.992Z,6.18
2022-08-07T03:05:08.059Z,5.78
2022-08-07T03:10:07.778Z,5.63
2022-08-07T03:15:08.265Z,5.93
2022-08-07T03:20:08.001Z,5.47
2022-08-07T03:25:10.304Z,4.30
2022-08-07T03:30:08.127Z,6.55
2022-08-07T03:35:17.413Z,6.68
2022-08-07T03:40:15.457Z,8.65
2022-08-07T03:45:08.471Z,5.80
2022-08-07T03:50:07.862Z,5.95
2022-08-07T03:55:08.356Z,5.88
2022-08-07T04:00:08.133Z,6.80
2022-08-07T04:05:02.378Z,5.93
2022-08-07T04:10:02.998Z,5.45
2022-08-07T04:15:01.733Z,6.00
2022-08-07T04:20:02.674Z,8.20
2022-08-07T04:25:02.437Z,6.38
2022-08-07T04:30:04.494Z,6.15
2022-08-07T04:35:02.088Z,5.75
2022-08-07T04:40:01.987Z,7.20
2022-08-07T04:45:02.917Z,6.55
2022-08-07T04:50:04.535Z,11.52
2022-08-07T04:55:02.609Z,7.45
2022-08-07T05:00:11.220Z,5.88
2022-08-07T05:05:02.398Z,7.30
2022-08-07T05:10:01.808Z,7.82
2022-08-07T05:15:04.182Z,8.65
2022-08-07T05:20:06.509Z,8.38
2022-08-07T05:25:02.358Z,7.32
2022-08-07T05:30:02.575Z,7.28
2022-08-07T05:35:02.552Z,8.23
2022-08-07T05:40:17.085Z,7.25
2022-08-07T05:45:14.385Z,7.47
2022-08-07T05:50:02.509Z,6.55
2022-08-07T05:55:10.266Z,6.40
2022-08-07T06:00:01.972Z,7.20
2022-08-07T06:05:01.843Z,9.20
2022-08-07T06:10:05.023Z,6.93
2022-08-07T06:15:05.134Z,8.30
2022-08-07T06:20:03.955Z,9.43
2022-08-07T06:25:02.959Z,7.35
2022-08-07T06:30:01.981Z,8.70
2022-08-07T06:35:02.152Z,8.43
2022-08-07T06:40:15.818Z,6.10
2022-08-07T06:45:02.392Z,13.75
2022-08-07T06:50:03.995Z,7.97
2022-08-07T06:55:32.699Z,7.82
2022-08-07T07:00:12.717Z,9.65
2022-08-07T07:05:02.793Z,8.90
2022-08-07T07:10:01.893Z,7.88
2022-08-07T07:15:03.306Z,7.40
2022-08-07T07:20:02.890Z,5.78
2022-08-07T07:25:02.853Z,7.40
2022-08-07T07:30:10.087Z,7.50
2022-08-07T07:35:02.022Z,6.72
2022-08-07T07:40:01.826Z,5.88
2022-08-07T07:45:02.669Z,6.18
2022-08-07T07:50:32.646Z,4.97
2022-08-07T07:55:03.311Z,4.30
2022-08-07T08:00:02.334Z,4.03
2022-08-07T08:05:02.656Z,4.72
2022-08-07T08:10:05.291Z,3.67
2022-08-07T08:15:06.768Z,5.63
2022-08-07T08:20:22.380Z,2.90
2022-08-07T08:25:09.351Z,3.20
2022-08-07T08:30:02.887Z,2.40
2022-08-07T08:35:02.839Z,5.38
2022-08-07T08:40:01.979Z,3.33
2022-08-07T08:45:04.149Z,3.10
2022-08-07T08:50:05.623Z,4.07
2022-08-07T08:55:04.589Z,2.78
2022-08-07T09:00:02.461Z,1.73
2022-08-07T09:05:02.308Z,2.05
2022-08-07T09:10:03.439Z,0.98
2022-08-07T09:16:24.535Z,3.05
2022-08-07T09:20:02.507Z,1.48
2022-08-07T09:25:12.010Z,2.45
2022-08-07T09:30:08.340Z,1.25
2022-08-07T09:35:04.777Z,1.50
2022-08-07T09:40:02.509Z,1.35
2022-08-07T09:47:24.967Z,1.10
2022-08-07T09:50:19.093Z,1.45
2022-08-07T09:55:02.743Z,1.40
2022-08-07T10:00:02.722Z,2.15
2022-08-07T10:05:12.401Z,1.30
2022-08-07T10:10:03.152Z,1.75
2022-08-07T10:15:02.125Z,1.23
2022-08-07T10:20:01.914Z,1.13
2022-08-07T10:25:08.418Z,1.02
2022-08-07T10:30:02.323Z,1.35
2022-08-07T10:35:02.239Z,1.67
2022-08-07T10:40:05.235Z,1.08
2022-08-07T10:45:01.992Z,1.00
2022-08-07T10:50:01.723Z,1.50
2022-08-07T10:55:21.012Z,1.10
2022-08-07T11:00:02.209Z,1.70
2022-08-07T11:05:08.604Z,2.38
2022-08-07T11:10:07.879Z,1.17
2022-08-07T11:15:02.634Z,1.17
2022-08-07T11:20:03.394Z,1.10
2022-08-07T11:25:02.733Z,1.10
2022-08-07T11:30:17.575Z,0.90
2022-08-07T11:35:01.905Z,1.23
2022-08-07T11:40:03.873Z,1.20
2022-08-07T11:45:03.564Z,1.42
2022-08-07T11:50:32.988Z,1.23
2022-08-07T11:55:02.634Z,1.95
2022-08-07T12:00:12.466Z,2.60
2022-08-07T12:05:02.378Z,1.17
2022-08-07T12:10:12.505Z,0
2022-08-07T12:15:02.342Z,1.25
2022-08-07T12:20:06.951Z,0.93
2022-08-07T12:25:07.657Z,1.13
2022-08-07T12:30:01.728Z,1.30
2022-08-07T12:35:02.110Z,1.17
2022-08-07T12:40:02.581Z,1.10
2022-08-07T12:45:04.496Z,3.65
2022-08-07T12:50:04.452Z,0.82
2022-08-07T12:55:16.590Z,0
2022-08-07T13:00:01.987Z,0.70
2022-08-07T13:05:02.588Z,2.88
2022-08-07T13:10:28.700Z,1.10
2022-08-07T13:15:01.757Z,1.30
2022-08-07T13:20:12.512Z,0
2022-08-07T13:25:02.495Z,2.75
2022-08-07T13:30:03.715Z,1.05
2022-08-07T13:35:08.465Z,1.00
2022-08-07T13:40:34.268Z,0.80
2022-08-07T13:46:06.651Z,0.90
2022-08-07T13:50:35.897Z,1.00
2022-08-07T13:55:02.180Z,0.90
2022-08-07T14:00:02.323Z,0.90
2022-08-07T14:05:02.424Z,1.50
2022-08-07T14:10:21.674Z,1.83
2022-08-07T14:15:01.972Z,0.98
2022-08-07T14:20:43.014Z,1.65
2022-08-07T14:25:02.422Z,1.88
2022-08-07T14:30:09.510Z,1.42
2022-08-07T14:35:04.140Z,1.30
2022-08-07T14:40:18.150Z,2.15
2022-08-07T14:45:21.751Z,2.58
2022-08-07T14:50:02.433Z,1.40
2022-08-07T14:55:02.419Z,1.42
2022-08-07T15:00:03.392Z,2.35
2022-08-07T15:05:02.403Z,1.00
2022-08-07T15:10:04.788Z,1.70
2022-08-07T15:15:07.314Z,1.17
2022-08-07T15:20:34.193Z,1.58
2022-08-07T15:25:17.686Z,1.33
2022-08-07T15:35:02.285Z,1.15
2022-08-07T15:40:01.985Z,0.93
2022-08-07T15:45:01.754Z,1.00
2022-08-07T15:55:03.593Z,1.48
2022-08-07T16:00:04.131Z,2.13
2022-08-07T16:05:02.222Z,2.30
2022-08-07T16:10:02.847Z,1.30
2022-08-07T16:15:57.473Z,1.48
2022-08-07T16:20:02.841Z,1.25
2022-08-07T16:25:02.717Z,3.67
2022-08-07T16:30:12.132Z,1.90
2022-08-07T16:35:02.321Z,1.60
2022-08-07T16:40:22.987Z,1.92
2022-08-07T16:45:24.681Z,1.70
2022-08-07T16:50:29.092Z,1.30
2022-08-07T16:55:08.144Z,1.67
2022-08-07T17:00:01.867Z,1.52
2022-08-07T17:05:02.746Z,1.77
2022-08-07T17:10:07.050Z,1.50
2022-08-07T17:15:01.769Z,2.47
2022-08-07T17:20:13.858Z,1.25
2022-08-07T17:25:02.353Z,1.60
2022-08-07T17:30:15.064Z,1.60
2022-08-07T17:35:49.964Z,4.47
2022-08-07T17:40:03.418Z,1.48
2022-08-07T17:45:02.072Z,1.80
2022-08-07T17:50:02.434Z,1.83
2022-08-07T17:55:02.186Z,1.80
2022-08-07T18:00:02.196Z,1.63
2022-08-07T18:05:21.693Z,0
2022-08-07T18:10:05.834Z,2.45
2022-08-07T18:15:02.439Z,1.58
2022-08-07T18:21:04.513Z,1.60
2022-08-07T18:25:18.750Z,1.58
2022-08-07T18:30:07.453Z,1.30
2022-08-07T18:35:12.430Z,0
2022-08-07T18:40:06.961Z,1.48
2022-08-07T18:45:40.338Z,1.25
2022-08-07T18:50:30.027Z,1.40
2022-08-07T18:55:43.173Z,0
2022-08-07T19:00:04.292Z,1.33
2022-08-07T19:05:15.537Z,2.58
2022-08-07T19:10:02.515Z,1.63
2022-08-07T19:15:02.447Z,1.65
2022-08-07T19:20:02.460Z,1.30
2022-08-07T19:25:05.511Z,1.50
2022-08-07T19:31:00.066Z,2.20
2022-08-07T19:35:02.640Z,1.45
2022-08-07T19:40:02.463Z,1.27
2022-08-07T19:45:08.532Z,1.40
2022-08-07T19:50:41.514Z,1.15
2022-08-07T19:55:02.824Z,1.20
2022-08-07T20:00:02.152Z,1.30
2022-08-07T20:05:01.987Z,1.13
2022-08-07T20:10:35.651Z,1.00
2022-08-07T20:15:02.673Z,1.33
2022-08-07T20:20:02.404Z,1.23
2022-08-07T20:25:02.454Z,1.92
2022-08-07T20:30:02.198Z,1.80
2022-08-07T20:35:02.101Z,1.45
2022-08-07T20:40:05.068Z,1.27
2022-08-07T20:45:04.588Z,1.60
2022-08-07T20:50:02.745Z,2.72
2022-08-07T20:55:02.479Z,1.73
2022-08-07T21:00:06.581Z,1.88
2022-08-07T21:05:01.821Z,1.35
2022-08-07T21:10:02.258Z,1.15
2022-08-07T21:15:02.667Z,1.50
2022-08-07T21:20:05.633Z,1.52
2022-08-07T21:25:04.596Z,1.50
2022-08-07T21:30:23.704Z,1.50
2022-08-07T21:35:18.001Z,3.10
2022-08-07T21:40:08.032Z,1.73
2022-08-07T21:46:03.201Z,3.15
2022-08-07T21:50:07.933Z,1.85
2022-08-07T21:55:08.459Z,1.83
2022-08-07T22:00:08.623Z,1.90
2022-08-07T22:05:08.507Z,1.63
2022-08-07T22:10:08.342Z,2.38
2022-08-07T22:16:38.870Z,2.42
2022-08-07T22:20:23.034Z,0
2022-08-07T22:25:08.742Z,2.90
2022-08-07T22:30:12.436Z,1.92
2022-08-07T22:35:11.256Z,2.05
2022-08-07T22:40:08.262Z,2.90
2022-08-07T22:45:10.987Z,3.10
2022-08-07T22:50:07.675Z,1.95
2022-08-07T22:55:17.011Z,2.17
2022-08-07T23:00:58.663Z,2.88
2022-08-07T23:06:09.012Z,2.90
2022-08-07T23:10:36.526Z,2.42
2022-08-07T23:15:08.558Z,3.90
2022-08-07T23:20:18.164Z,4.00
2022-08-07T23:25:08.483Z,2.70
2022-08-07T23:30:37.879Z,3.30
2022-08-07T23:35:10.728Z,3.20
2022-08-07T23:40:08.436Z,3.05
2022-08-07T23:45:15.523Z,2.95
2022-08-07T23:50:07.832Z,6.38
2022-08-07T23:55:09.515Z,3.58
